sensor_id;sensor_type;location;lat;lon;timestamp;pressure;altitude;pressure_sealevel;temperature;humidity
63954;BME280;50128;52.094;5.232;2022-07-17T00:00:48;102673.0;;;14.03;72.8
63954;BME280;50128;52.094;5.232;2022-07-17T00:02:34;102669.0;;;14.03;72.91
63954;BME280;50128;52.094;5.232;2022-07-17T00:04:22;102667.0;;;14.12;72.03
63954;BME280;50128;52.094;5.232;2022-07-17T00:06:09;102667.0;;;14.15;72.83
63954;BME280;50128;52.094;5.232;2022-07-17T00:07:55;102670.0;;;14.22;71.77
63954;BME280;50128;52.094;5.232;2022-07-17T00:11:29;102667.0;;;14.2;71.86
63954;BME280;50128;52.094;5.232;2022-07-17T00:13:17;102666.00000000001;;;14.21;71.64
63954;BME280;50128;52.094;5.232;2022-07-17T00:15:04;102666.00000000001;;;14.14;72.23
63954;BME280;50128;52.094;5.232;2022-07-17T00:16:52;102668.0;;;14.12;72.41
63954;BME280;50128;52.094;5.232;2022-07-17T00:18:39;102670.0;;;14.01;72.48
63954;BME280;50128;52.094;5.232;2022-07-17T00:20:26;102671.0;;;13.96;72.44
63954;BME280;50128;52.094;5.232;2022-07-17T00:24:00;102676.0;;;13.98;72.95
63954;BME280;50128;52.094;5.232;2022-07-17T00:25:48;102677.0;;;14.02;73.06
63954;BME280;50128;52.094;5.232;2022-07-17T00:27:36;102674.0;;;13.94;72.8
63954;BME280;50128;52.094;5.232;2022-07-17T00:29:22;102682.0;;;13.86;73.17
63954;BME280;50128;52.094;5.232;2022-07-17T00:31:09;102683.0;;;13.9;73.19
63954;BME280;50128;52.094;5.232;2022-07-17T00:32:56;102683.99999999999;;;13.81;73.45
63954;BME280;50128;52.094;5.232;2022-07-17T00:36:31;102686.99999999999;;;13.8;73.69
63954;BME280;50128;52.094;5.232;2022-07-17T00:38:17;102681.0;;;13.71;73.69
63954;BME280;50128;52.094;5.232;2022-07-17T00:40:06;102675.0;;;13.8;73.27
63954;BME280;50128;52.094;5.232;2022-07-17T00:41:52;102673.0;;;13.77;73.66
63954;BME280;50128;52.094;5.232;2022-07-17T00:43:39;102675.0;;;13.73;74.11
63954;BME280;50128;52.094;5.232;2022-07-17T00:47:14;102671.0;;;13.7;73.75
63954;BME280;50128;52.094;5.232;2022-07-17T00:49:03;102668.0;;;13.65;73.98
63954;BME280;50128;52.094;5.232;2022-07-17T00:50:50;102668.0;;;13.78;73.27
63954;BME280;50128;52.094;5.232;2022-07-17T00:52:37;102671.0;;;13.88;72.84
63954;BME280;50128;52.094;5.232;2022-07-17T00:54:25;102667.0;;;13.72;73.19
63954;BME280;50128;52.094;5.232;2022-07-17T00:56:12;102671.0;;;13.76;72.94
63954;BME280;50128;52.094;5.232;2022-07-17T00:58:04;102671.0;;;13.6;73.59
63954;BME280;50128;52.094;5.232;2022-07-17T01:01:39;102673.0;;;13.47;74.23
63954;BME280;50128;52.094;5.232;2022-07-17T01:03:26;102673.0;;;13.41;74.67
63954;BME280;50128;52.094;5.232;2022-07-17T01:05:14;102671.0;;;13.41;74.45
63954;BME280;50128;52.094;5.232;2022-07-17T01:07:02;102673.0;;;13.42;74.39
63954;BME280;50128;52.094;5.232;2022-07-17T01:08:51;102672.0;;;13.45;74.05
63954;BME280;50128;52.094;5.232;2022-07-17T01:10:38;102673.0;;;13.43;74.02
63954;BME280;50128;52.094;5.232;2022-07-17T01:14:13;102675.0;;;13.38;74.22
63954;BME280;50128;52.094;5.232;2022-07-17T01:16:01;102676.0;;;13.33;74.52
63954;BME280;50128;52.094;5.232;2022-07-17T01:17:48;102674.0;;;13.32;75.3
63954;BME280;50128;52.094;5.232;2022-07-17T01:19:35;102678.0;;;13.32;74.84
63954;BME280;50128;52.094;5.232;2022-07-17T01:21:22;102676.0;;;13.32;74.83
63954;BME280;50128;52.094;5.232;2022-07-17T01:23:09;102677.0;;;13.36;74.55
63954;BME280;50128;52.094;5.232;2022-07-17T01:26:44;102676.0;;;13.32;74.72
63954;BME280;50128;52.094;5.232;2022-07-17T01:28:32;102676.0;;;13.59;73.52
63954;BME280;50128;52.094;5.232;2022-07-17T01:30:19;102675.0;;;13.46;73.61
63954;BME280;50128;52.094;5.232;2022-07-17T01:32:06;102668.0;;;13.41;74.2
63954;BME280;50128;52.094;5.232;2022-07-17T01:33:53;102669.0;;;13.26;74.59
63954;BME280;50128;52.094;5.232;2022-07-17T01:35:40;102672.0;;;13.19;74.94
63954;BME280;50128;52.094;5.232;2022-07-17T01:39:15;102671.0;;;13.13;75.16
63954;BME280;50128;52.094;5.232;2022-07-17T01:41:02;102659.99999999999;;;13.27;74.38
63954;BME280;50128;52.094;5.232;2022-07-17T01:42:50;102652.0;;;13.39;73.89
63954;BME280;50128;52.094;5.232;2022-07-17T01:44:36;102651.0;;;13.35;74.09
63954;BME280;50128;52.094;5.232;2022-07-17T01:46:23;102645.0;;;13.39;74.24
63954;BME280;50128;52.094;5.232;2022-07-17T01:49:58;102647.0;;;13.27;74.5
63954;BME280;50128;52.094;5.232;2022-07-17T01:51:45;102651.0;;;13.32;74.61
63954;BME280;50128;52.094;5.232;2022-07-17T01:53:32;102652.0;;;13.21;74.91
63954;BME280;50128;52.094;5.232;2022-07-17T01:55:19;102653.0;;;13.16;75.05
63954;BME280;50128;52.094;5.232;2022-07-17T01:57:06;102658.99999999999;;;13.15;75.61
63954;BME280;50128;52.094;5.232;2022-07-17T01:58:54;102659.99999999999;;;13.05;75.3
63954;BME280;50128;52.094;5.232;2022-07-17T02:02:29;102657.0;;;13.07;74.95
63954;BME280;50128;52.094;5.232;2022-07-17T02:04:16;102657.0;;;12.99;75.08
63954;BME280;50128;52.094;5.232;2022-07-17T02:06:03;102658.99999999999;;;12.93;75.48
63954;BME280;50128;52.094;5.232;2022-07-17T02:07:50;102661.99999999999;;;12.92;75.62
63954;BME280;50128;52.094;5.232;2022-07-17T02:09:38;102655.0;;;12.92;75.2
63954;BME280;50128;52.094;5.232;2022-07-17T02:11:25;102655.0;;;12.91;75.73
63954;BME280;50128;52.094;5.232;2022-07-17T02:14:59;102656.0;;;12.95;75.3
63954;BME280;50128;52.094;5.232;2022-07-17T02:16:45;102654.0;;;12.99;75.2
63954;BME280;50128;52.094;5.232;2022-07-17T02:18:32;102654.0;;;12.95;75.28
63954;BME280;50128;52.094;5.232;2022-07-17T02:20:19;102653.0;;;12.94;75.41
63954;BME280;50128;52.094;5.232;2022-07-17T02:22:08;102659.99999999999;;;12.92;74.98
63954;BME280;50128;52.094;5.232;2022-07-17T02:23:55;102656.0;;;12.87;75.19
63954;BME280;50128;52.094;5.232;2022-07-17T02:27:30;102664.00000000001;;;12.88;75.28
63954;BME280;50128;52.094;5.232;2022-07-17T02:29:17;102668.0;;;12.79;75.2
63954;BME280;50128;52.094;5.232;2022-07-17T02:31:04;102670.0;;;12.78;75.5
63954;BME280;50128;52.094;5.232;2022-07-17T02:32:51;102672.0;;;12.77;75.73
63954;BME280;50128;52.094;5.232;2022-07-17T02:34:38;102674.0;;;12.72;75.94
63954;BME280;50128;52.094;5.232;2022-07-17T02:36:24;102672.0;;;12.71;75.72
63954;BME280;50128;52.094;5.232;2022-07-17T02:39:58;102678.0;;;12.73;75.36
63954;BME280;50128;52.094;5.232;2022-07-17T02:41:45;102682.0;;;12.7;75.52
63954;BME280;50128;52.094;5.232;2022-07-17T02:43:32;102680.0;;;12.72;75.53
63954;BME280;50128;52.094;5.232;2022-07-17T02:45:24;102677.0;;;12.71;75.64
63954;BME280;50128;52.094;5.232;2022-07-17T02:47:11;102679.0;;;12.67;75.36
63954;BME280;50128;52.094;5.232;2022-07-17T02:48:58;102679.0;;;12.71;75.16
63954;BME280;50128;52.094;5.232;2022-07-17T02:52:31;102676.0;;;12.64;75.72
63954;BME280;50128;52.094;5.232;2022-07-17T02:54:18;102669.0;;;12.69;75.34
63954;BME280;50128;52.094;5.232;2022-07-17T02:56:06;102667.0;;;12.64;76.17
63954;BME280;50128;52.094;5.232;2022-07-17T02:57:53;102665.00000000001;;;12.63;75.78
63954;BME280;50128;52.094;5.232;2022-07-17T02:59:40;102661.99999999999;;;12.67;75.12
63954;BME280;50128;52.094;5.232;2022-07-17T03:01:28;102659.99999999999;;;12.62;75.38
63954;BME280;50128;52.094;5.232;2022-07-17T03:05:02;102666.00000000001;;;12.59;75.19
63954;BME280;50128;52.094;5.232;2022-07-17T03:06:48;102668.0;;;12.5;75.86
63954;BME280;50128;52.094;5.232;2022-07-17T03:08:36;102666.00000000001;;;12.52;76.05
63954;BME280;50128;52.094;5.232;2022-07-17T03:12:09;102665.00000000001;;;12.49;75.86
63954;BME280;50128;52.094;5.232;2022-07-17T03:15:43;102669.0;;;12.42;76.05
63954;BME280;50128;52.094;5.232;2022-07-17T03:17:29;102671.0;;;12.37;76.3
63954;BME280;50128;52.094;5.232;2022-07-17T03:19:17;102674.0;;;12.33;76.77
63954;BME280;50128;52.094;5.232;2022-07-17T03:21:04;102669.0;;;12.29;76.7
63954;BME280;50128;52.094;5.232;2022-07-17T03:22:51;102675.0;;;12.36;76.27
63954;BME280;50128;52.094;5.232;2022-07-17T03:24:38;102678.0;;;12.27;76.3
63954;BME280;50128;52.094;5.232;2022-07-17T03:28:12;102678.0;;;12.23;76.99
63954;BME280;50128;52.094;5.232;2022-07-17T03:29:59;102683.99999999999;;;12.2;77.13
63954;BME280;50128;52.094;5.232;2022-07-17T03:31:46;102684.99999999999;;;12.2;76.88
63954;BME280;50128;52.094;5.232;2022-07-17T03:33:34;102688.00000000001;;;12.21;76.44
63954;BME280;50128;52.094;5.232;2022-07-17T03:35:21;102690.00000000001;;;12.23;76.98
63954;BME280;50128;52.094;5.232;2022-07-17T03:37:08;102696.0;;;12.13;76.77
63954;BME280;50128;52.094;5.232;2022-07-17T03:40:42;102688.00000000001;;;12.15;76.8
63954;BME280;50128;52.094;5.232;2022-07-17T03:42:28;102686.99999999999;;;12.3;76.19
63954;BME280;50128;52.094;5.232;2022-07-17T03:44:15;102679.0;;;12.28;76.75
63954;BME280;50128;52.094;5.232;2022-07-17T03:46:01;102678.0;;;12.34;76.31
63954;BME280;50128;52.094;5.232;2022-07-17T03:47:48;102679.0;;;12.33;76.67
63954;BME280;50128;52.094;5.232;2022-07-17T03:49:35;102678.0;;;12.49;75.89
63954;BME280;50128;52.094;5.232;2022-07-17T03:53:10;102683.99999999999;;;12.55;75.45
63954;BME280;50128;52.094;5.232;2022-07-17T03:54:57;102690.00000000001;;;12.37;76.11
63954;BME280;50128;52.094;5.232;2022-07-17T03:56:44;102686.99999999999;;;12.3;76.16
63954;BME280;50128;52.094;5.232;2022-07-17T03:58:30;102690.00000000001;;;12.31;76.48
63954;BME280;50128;52.094;5.232;2022-07-17T04:00:18;102692.0;;;12.46;75.37
63954;BME280;50128;52.094;5.232;2022-07-17T04:03:51;102698.0;;;12.4;76.12
63954;BME280;50128;52.094;5.232;2022-07-17T04:05:39;102694.0;;;12.35;76.08
63954;BME280;50128;52.094;5.232;2022-07-17T04:07:27;102694.0;;;12.36;76.19
63954;BME280;50128;52.094;5.232;2022-07-17T04:09:14;102695.0;;;12.4;75.94
63954;BME280;50128;52.094;5.232;2022-07-17T04:11:01;102701.0;;;12.43;75.88
63954;BME280;50128;52.094;5.232;2022-07-17T04:12:48;102705.0;;;12.38;76.05
63954;BME280;50128;52.094;5.232;2022-07-17T04:16:22;102706.0;;;12.32;76.55
63954;BME280;50128;52.094;5.232;2022-07-17T04:18:09;102709.99999999999;;;12.43;76.02
63954;BME280;50128;52.094;5.232;2022-07-17T04:19:55;102715.00000000001;;;12.47;75.89
63954;BME280;50128;52.094;5.232;2022-07-17T04:21:42;102711.99999999999;;;12.63;75.11
63954;BME280;50128;52.094;5.232;2022-07-17T04:23:28;102708.99999999999;;;12.52;75.94
63954;BME280;50128;52.094;5.232;2022-07-17T04:25:16;102706.0;;;12.7;74.91
63954;BME280;50128;52.094;5.232;2022-07-17T04:28:50;102704.0;;;12.59;75.77
63954;BME280;50128;52.094;5.232;2022-07-17T04:30:38;102704.0;;;12.65;75.86
63954;BME280;50128;52.094;5.232;2022-07-17T04:32:24;102706.0;;;12.74;75.44
63954;BME280;50128;52.094;5.232;2022-07-17T04:34:10;102706.0;;;12.7;75.05
63954;BME280;50128;52.094;5.232;2022-07-17T04:35:58;102704.0;;;12.66;75.27
63954;BME280;50128;52.094;5.232;2022-07-17T04:37:45;102705.0;;;12.63;75.56
63954;BME280;50128;52.094;5.232;2022-07-17T04:41:18;102708.99999999999;;;12.77;75.0
63954;BME280;50128;52.094;5.232;2022-07-17T04:43:06;102708.0;;;12.74;75.41
63954;BME280;50128;52.094;5.232;2022-07-17T04:44:54;102715.00000000001;;;12.67;75.69
63954;BME280;50128;52.094;5.232;2022-07-17T04:46:40;102715.00000000001;;;12.66;75.86
63954;BME280;50128;52.094;5.232;2022-07-17T04:48:27;102714.00000000001;;;12.75;75.66
63954;BME280;50128;52.094;5.232;2022-07-17T04:50:14;102695.0;;;12.93;74.74
63954;BME280;50128;52.094;5.232;2022-07-17T04:53:48;102692.0;;;13.0;74.58
63954;BME280;50128;52.094;5.232;2022-07-17T04:55:35;102681.0;;;13.08;73.97
63954;BME280;50128;52.094;5.232;2022-07-17T04:57:22;102680.0;;;13.23;72.7
63954;BME280;50128;52.094;5.232;2022-07-17T04:59:09;102674.0;;;13.35;72.09
63954;BME280;50128;52.094;5.232;2022-07-17T05:00:56;102672.0;;;13.44;71.58
63954;BME280;50128;52.094;5.232;2022-07-17T05:04:29;102677.0;;;13.57;71.19
63954;BME280;50128;52.094;5.232;2022-07-17T05:06:17;102677.0;;;13.71;70.61
63954;BME280;50128;52.094;5.232;2022-07-17T05:08:04;102680.0;;;13.67;70.59
63954;BME280;50128;52.094;5.232;2022-07-17T05:09:50;102673.0;;;13.69;70.38
63954;BME280;50128;52.094;5.232;2022-07-17T05:11:37;102675.0;;;13.94;69.62
63954;BME280;50128;52.094;5.232;2022-07-17T05:13:25;102677.0;;;14.01;69.41
63954;BME280;50128;52.094;5.232;2022-07-17T05:16:59;102681.0;;;14.1;69.09
63954;BME280;50128;52.094;5.232;2022-07-17T05:18:46;102682.0;;;14.17;68.89
63954;BME280;50128;52.094;5.232;2022-07-17T05:20:33;102683.99999999999;;;14.27;68.87
63954;BME280;50128;52.094;5.232;2022-07-17T05:22:21;102675.0;;;14.43;68.27
63954;BME280;50128;52.094;5.232;2022-07-17T05:24:08;102667.0;;;14.61;67.22
63954;BME280;50128;52.094;5.232;2022-07-17T05:25:55;102667.0;;;14.79;66.8
63954;BME280;50128;52.094;5.232;2022-07-17T05:29:29;102665.00000000001;;;15.04;65.75
63954;BME280;50128;52.094;5.232;2022-07-17T05:31:15;102666.00000000001;;;15.28;65.1
63954;BME280;50128;52.094;5.232;2022-07-17T05:33:02;102671.0;;;15.54;64.41
63954;BME280;50128;52.094;5.232;2022-07-17T05:34:49;102668.0;;;15.79;63.05
63954;BME280;50128;52.094;5.232;2022-07-17T05:36:36;102675.0;;;15.95;62.45
63954;BME280;50128;52.094;5.232;2022-07-17T05:38:23;102675.0;;;16.09;61.8
63954;BME280;50128;52.094;5.232;2022-07-17T05:41:57;102672.0;;;16.09;61.47
63954;BME280;50128;52.094;5.232;2022-07-17T05:43:44;102674.0;;;16.2;60.97
63954;BME280;50128;52.094;5.232;2022-07-17T05:45:31;102680.0;;;16.32;61.46
63954;BME280;50128;52.094;5.232;2022-07-17T05:47:17;102683.99999999999;;;16.46;61.38
63954;BME280;50128;52.094;5.232;2022-07-17T05:49:04;102692.0;;;16.61;60.42
63954;BME280;50128;52.094;5.232;2022-07-17T05:52:37;102692.0;;;16.72;60.38
63954;BME280;50128;52.094;5.232;2022-07-17T05:54:24;102697.0;;;16.46;60.87
63954;BME280;50128;52.094;5.232;2022-07-17T05:56:11;102693.0;;;16.5;60.63
63954;BME280;50128;52.094;5.232;2022-07-17T05:57:58;102683.99999999999;;;16.54;60.98
63954;BME280;50128;52.094;5.232;2022-07-17T05:59:45;102692.0;;;16.91;59.53
63954;BME280;50128;52.094;5.232;2022-07-17T06:01:33;102692.0;;;17.14;58.39
63954;BME280;50128;52.094;5.232;2022-07-17T06:05:08;102690.00000000001;;;17.21;58.12
63954;BME280;50128;52.094;5.232;2022-07-17T06:06:56;102693.0;;;17.59;57.05
63954;BME280;50128;52.094;5.232;2022-07-17T06:08:43;102692.0;;;17.71;56.21
63954;BME280;50128;52.094;5.232;2022-07-17T06:10:30;102696.0;;;17.78;55.79
63954;BME280;50128;52.094;5.232;2022-07-17T06:12:17;102704.0;;;17.97;56.25
63954;BME280;50128;52.094;5.232;2022-07-17T06:14:04;102717.0;;;18.06;55.52
63954;BME280;50128;52.094;5.232;2022-07-17T06:17:39;102723.0;;;18.28;55.31
63954;BME280;50128;52.094;5.232;2022-07-17T06:19:26;102727.0;;;18.77;53.51
63954;BME280;50128;52.094;5.232;2022-07-17T06:21:13;102726.0;;;19.27;51.2
63954;BME280;50128;52.094;5.232;2022-07-17T06:23:00;102727.0;;;19.55;50.32
63954;BME280;50128;52.094;5.232;2022-07-17T06:24:47;102727.0;;;19.78;49.72
63954;BME280;50128;52.094;5.232;2022-07-17T06:26:33;102723.0;;;19.59;50.48
63954;BME280;50128;52.094;5.232;2022-07-17T06:30:09;102732.0;;;19.54;51.0
63954;BME280;50128;52.094;5.232;2022-07-17T06:31:57;102730.0;;;20.27;48.44
63954;BME280;50128;52.094;5.232;2022-07-17T06:33:44;102733.0;;;20.27;48.82
63954;BME280;50128;52.094;5.232;2022-07-17T06:35:33;102733.99999999999;;;19.93;50.81
63954;BME280;50128;52.094;5.232;2022-07-17T06:37:20;102741.00000000001;;;19.8;50.69
63954;BME280;50128;52.094;5.232;2022-07-17T06:39:07;102742.0;;;19.87;50.78
63954;BME280;50128;52.094;5.232;2022-07-17T06:42:40;102744.0;;;20.41;48.79
63954;BME280;50128;52.094;5.232;2022-07-17T06:44:28;102743.0;;;20.37;48.54
63954;BME280;50128;52.094;5.232;2022-07-17T06:46:15;102741.00000000001;;;20.71;46.61
63954;BME280;50128;52.094;5.232;2022-07-17T06:48:02;102740.00000000001;;;20.59;46.98
63954;BME280;50128;52.094;5.232;2022-07-17T06:49:49;102741.00000000001;;;20.85;47.44
63954;BME280;50128;52.094;5.232;2022-07-17T06:51:35;102736.99999999999;;;20.84;45.47
63954;BME280;50128;52.094;5.232;2022-07-17T06:55:09;102734.99999999999;;;20.51;47.36
63954;BME280;50128;52.094;5.232;2022-07-17T06:56:56;102734.99999999999;;;20.73;48.19
63954;BME280;50128;52.094;5.232;2022-07-17T06:58:43;102744.0;;;20.81;47.9
63954;BME280;50128;52.094;5.232;2022-07-17T07:00:30;102740.00000000001;;;21.04;49.2
63954;BME280;50128;52.094;5.232;2022-07-17T07:02:17;102742.0;;;21.76;43.95
63954;BME280;50128;52.094;5.232;2022-07-17T07:05:50;102742.0;;;22.21;43.13
63954;BME280;50128;52.094;5.232;2022-07-17T07:07:37;102744.0;;;21.7;44.33
63954;BME280;50128;52.094;5.232;2022-07-17T07:09:26;102744.0;;;21.79;44.44
63954;BME280;50128;52.094;5.232;2022-07-17T07:11:12;102742.0;;;22.28;42.4
63954;BME280;50128;52.094;5.232;2022-07-17T07:12:58;102739.00000000001;;;21.85;44.14
63954;BME280;50128;52.094;5.232;2022-07-17T07:14:45;102733.0;;;22.26;43.24
63954;BME280;50128;52.094;5.232;2022-07-17T07:18:21;102742.0;;;22.23;43.46
63954;BME280;50128;52.094;5.232;2022-07-17T07:20:09;102741.00000000001;;;22.11;43.7
63954;BME280;50128;52.094;5.232;2022-07-17T07:21:57;102742.0;;;22.28;42.3
63954;BME280;50128;52.094;5.232;2022-07-17T07:23:44;102743.0;;;21.81;45.1
63954;BME280;50128;52.094;5.232;2022-07-17T07:25:31;102738.00000000001;;;21.79;45.77
63954;BME280;50128;52.094;5.232;2022-07-17T07:27:17;102731.0;;;22.15;44.87
63954;BME280;50128;52.094;5.232;2022-07-17T07:30:51;102729.0;;;22.37;43.9
63954;BME280;50128;52.094;5.232;2022-07-17T07:32:39;102727.0;;;22.43;44.5
63954;BME280;50128;52.094;5.232;2022-07-17T07:34:26;102729.0;;;22.57;44.29
63954;BME280;50128;52.094;5.232;2022-07-17T07:36:13;102738.00000000001;;;22.82;42.33
63954;BME280;50128;52.094;5.232;2022-07-17T07:38:01;102739.00000000001;;;22.95;42.94
63954;BME280;50128;52.094;5.232;2022-07-17T07:39:48;102745.0;;;22.87;42.98
63954;BME280;50128;52.094;5.232;2022-07-17T07:43:24;102741.00000000001;;;23.09;43.26
63954;BME280;50128;52.094;5.232;2022-07-17T07:45:10;102740.00000000001;;;23.12;42.12
63954;BME280;50128;52.094;5.232;2022-07-17T07:46:58;102739.00000000001;;;22.54;43.57
63954;BME280;50128;52.094;5.232;2022-07-17T07:48:44;102741.00000000001;;;22.89;42.64
63954;BME280;50128;52.094;5.232;2022-07-17T07:50:32;102742.0;;;22.97;42.1
63954;BME280;50128;52.094;5.232;2022-07-17T07:52:19;102739.00000000001;;;23.23;41.37
63954;BME280;50128;52.094;5.232;2022-07-17T07:55:53;102742.0;;;22.86;41.54
63954;BME280;50128;52.094;5.232;2022-07-17T07:57:40;102738.00000000001;;;22.7;42.44
63954;BME280;50128;52.094;5.232;2022-07-17T07:59:28;102742.0;;;22.85;43.38
63954;BME280;50128;52.094;5.232;2022-07-17T08:01:15;102739.00000000001;;;22.97;42.15
63954;BME280;50128;52.094;5.232;2022-07-17T08:03:02;102742.0;;;23.6;41.84
63954;BME280;50128;52.094;5.232;2022-07-17T08:04:50;102744.0;;;23.44;41.38
63954;BME280;50128;52.094;5.232;2022-07-17T08:08:24;102742.0;;;23.39;41.07
63954;BME280;50128;52.094;5.232;2022-07-17T08:10:11;102745.0;;;23.4;40.85
63954;BME280;50128;52.094;5.232;2022-07-17T08:11:59;102738.00000000001;;;23.23;42.48
63954;BME280;50128;52.094;5.232;2022-07-17T08:13:46;102742.0;;;23.43;41.1
63954;BME280;50128;52.094;5.232;2022-07-17T08:15:33;102736.99999999999;;;22.9;42.14
63954;BME280;50128;52.094;5.232;2022-07-17T08:17:20;102739.00000000001;;;23.2;42.18
63954;BME280;50128;52.094;5.232;2022-07-17T08:20:54;102739.00000000001;;;23.19;40.85
63954;BME280;50128;52.094;5.232;2022-07-17T08:22:43;102733.99999999999;;;23.24;41.69
63954;BME280;50128;52.094;5.232;2022-07-17T08:24:32;102733.0;;;23.62;41.51
63954;BME280;50128;52.094;5.232;2022-07-17T08:26:18;102733.99999999999;;;23.58;40.17
63954;BME280;50128;52.094;5.232;2022-07-17T08:28:05;102731.0;;;22.88;41.19
63954;BME280;50128;52.094;5.232;2022-07-17T08:31:39;102729.0;;;23.42;40.96
63954;BME280;50128;52.094;5.232;2022-07-17T08:33:26;102724.0;;;23.39;41.72
63954;BME280;50128;52.094;5.232;2022-07-17T08:35:14;102727.0;;;23.32;41.51
63954;BME280;50128;52.094;5.232;2022-07-17T08:37:00;102726.0;;;23.14;41.33
63954;BME280;50128;52.094;5.232;2022-07-17T08:38:47;102726.0;;;23.59;40.71
63954;BME280;50128;52.094;5.232;2022-07-17T08:40:36;102729.0;;;23.85;39.53
63954;BME280;50128;52.094;5.232;2022-07-17T08:44:18;102733.99999999999;;;23.87;39.81
63954;BME280;50128;52.094;5.232;2022-07-17T08:46:05;102733.0;;;23.93;39.99
63954;BME280;50128;52.094;5.232;2022-07-17T08:47:53;102732.0;;;23.7;39.04
63954;BME280;50128;52.094;5.232;2022-07-17T08:49:44;102727.0;;;23.52;41.05
63954;BME280;50128;52.094;5.232;2022-07-17T08:51:33;102727.0;;;24.01;39.56
63954;BME280;50128;52.094;5.232;2022-07-17T08:53:21;102726.0;;;24.16;39.26
63954;BME280;50128;52.094;5.232;2022-07-17T08:55:08;102722.0;;;24.02;39.74
63954;BME280;50128;52.094;5.232;2022-07-17T08:58:44;102717.0;;;24.01;39.68
63954;BME280;50128;52.094;5.232;2022-07-17T09:00:31;102717.0;;;23.77;40.24
63954;BME280;50128;52.094;5.232;2022-07-17T09:02:18;102713.00000000001;;;23.53;41.9
63954;BME280;50128;52.094;5.232;2022-07-17T09:04:06;102705.0;;;23.4;41.34
63954;BME280;50128;52.094;5.232;2022-07-17T09:05:53;102709.99999999999;;;23.37;41.87
63954;BME280;50128;52.094;5.232;2022-07-17T09:07:45;102713.00000000001;;;23.34;42.05
63954;BME280;50128;52.094;5.232;2022-07-17T09:11:20;102711.99999999999;;;23.37;41.76
63954;BME280;50128;52.094;5.232;2022-07-17T09:13:17;102714.00000000001;;;23.38;41.68
63954;BME280;50128;52.094;5.232;2022-07-17T09:15:16;102711.99999999999;;;23.65;41.29
63954;BME280;50128;52.094;5.232;2022-07-17T09:17:04;102708.99999999999;;;23.89;40.64
63954;BME280;50128;52.094;5.232;2022-07-17T09:18:53;102713.00000000001;;;24.0;39.85
63954;BME280;50128;52.094;5.232;2022-07-17T09:20:45;102708.99999999999;;;23.82;39.89
63954;BME280;50128;52.094;5.232;2022-07-17T09:22:33;102711.99999999999;;;23.85;39.76
63954;BME280;50128;52.094;5.232;2022-07-17T09:24:20;102706.0;;;24.06;40.07
63954;BME280;50128;52.094;5.232;2022-07-17T09:27:56;102711.99999999999;;;24.07;38.69
63954;BME280;50128;52.094;5.232;2022-07-17T09:29:52;102717.0;;;24.15;39.37
63954;BME280;50128;52.094;5.232;2022-07-17T09:31:40;102714.00000000001;;;24.22;39.83
63954;BME280;50128;52.094;5.232;2022-07-17T09:33:27;102720.0;;;24.35;38.49
63954;BME280;50128;52.094;5.232;2022-07-17T09:35:16;102722.0;;;24.15;39.31
63954;BME280;50128;52.094;5.232;2022-07-17T09:37:03;102726.0;;;24.09;39.21
63954;BME280;50128;52.094;5.232;2022-07-17T09:41:13;102721.0;;;23.66;39.56
63954;BME280;50128;52.094;5.232;2022-07-17T09:43:02;102723.0;;;23.49;41.23
63954;BME280;50128;52.094;5.232;2022-07-17T09:44:58;102721.0;;;23.73;40.12
63954;BME280;50128;52.094;5.232;2022-07-17T09:46:45;102719.0;;;23.8;39.86
63954;BME280;50128;52.094;5.232;2022-07-17T09:48:35;102716.00000000001;;;23.74;40.43
63954;BME280;50128;52.094;5.232;2022-07-17T09:50:27;102714.00000000001;;;24.08;39.44
63954;BME280;50128;52.094;5.232;2022-07-17T09:52:15;102713.00000000001;;;23.79;40.06
63954;BME280;50128;52.094;5.232;2022-07-17T09:54:03;102715.00000000001;;;23.74;40.61
63954;BME280;50128;52.094;5.232;2022-07-17T09:55:53;102709.99999999999;;;23.86;39.99
63954;BME280;50128;52.094;5.232;2022-07-17T09:59:35;102706.0;;;23.79;39.75
63954;BME280;50128;52.094;5.232;2022-07-17T10:01:23;102708.99999999999;;;23.9;40.24
63954;BME280;50128;52.094;5.232;2022-07-17T10:03:09;102707.0;;;23.89;39.4
63954;BME280;50128;52.094;5.232;2022-07-17T10:04:57;102704.0;;;23.6;40.14
63954;BME280;50128;52.094;5.232;2022-07-17T10:06:45;102714.00000000001;;;23.72;39.47
63954;BME280;50128;52.094;5.232;2022-07-17T10:08:33;102707.0;;;23.89;40.86
63954;BME280;50128;52.094;5.232;2022-07-17T10:10:20;102709.99999999999;;;23.82;40.28
63954;BME280;50128;52.094;5.232;2022-07-17T10:14:02;102703.0;;;23.82;40.03
63954;BME280;50128;52.094;5.232;2022-07-17T10:15:50;102705.0;;;24.11;40.17
63954;BME280;50128;52.094;5.232;2022-07-17T10:17:37;102700.0;;;24.13;41.18
63954;BME280;50128;52.094;5.232;2022-07-17T10:19:25;102698.0;;;24.24;40.81
63954;BME280;50128;52.094;5.232;2022-07-17T10:21:13;102697.0;;;24.41;40.46
63954;BME280;50128;52.094;5.232;2022-07-17T10:23:11;102701.0;;;24.52;39.21
63954;BME280;50128;52.094;5.232;2022-07-17T10:25:04;102698.0;;;24.56;41.27
63954;BME280;50128;52.094;5.232;2022-07-17T10:28:40;102693.0;;;24.71;38.81
63954;BME280;50128;52.094;5.232;2022-07-17T10:30:30;102701.0;;;24.44;38.31
63954;BME280;50128;52.094;5.232;2022-07-17T10:32:18;102708.0;;;24.51;38.69
63954;BME280;50128;52.094;5.232;2022-07-17T10:34:06;102709.99999999999;;;24.36;38.43
63954;BME280;50128;52.094;5.232;2022-07-17T10:35:53;102706.0;;;24.28;40.22
63954;BME280;50128;52.094;5.232;2022-07-17T10:37:40;102707.0;;;24.52;38.53
63954;BME280;50128;52.094;5.232;2022-07-17T10:41:19;102703.0;;;24.68;38.61
63954;BME280;50128;52.094;5.232;2022-07-17T10:43:08;102703.0;;;24.65;37.54